Time;durP1;ratioP1;P1;durP2;ratioP2;P2;SDS_P1;SDS_P2;PMS_P1;PMS_P2;Temp;Humidity;BMP_temperature;BMP_pressure;BME280_temperature;BME280_humidity;BME280_pressure;Samples;Min_cycle;Max_cycle;Signal;HPM_P1;HPM_P2
2021/05/01 00:01:43;;;;;;;6.25;3.90;;;12.20;58.10;;;;;;4748955;30;20064;-87
2021/05/01 00:04:09;;;;;;;5.15;3.83;;;12.30;58.10;;;;;;4720991;30;20033;-90
2021/05/01 00:06:37;;;;;;;5.00;3.75;;;12.20;58.10;;;;;;4722013;30;20059;-91
2021/05/01 00:09:03;;;;;;;4.88;3.70;;;12.20;58.10;;;;;;4721078;30;20483;-90
2021/05/01 00:11:30;;;;;;;4.70;3.42;;;12.20;58.10;;;;;;4736335;30;20049;-90
2021/05/01 00:13:58;;;;;;;4.60;3.50;;;12.20;58.10;;;;;;4707380;30;20582;-91
2021/05/01 00:16:25;;;;;;;5.22;3.90;;;12.20;58.20;;;;;;4721996;30;20115;-90
2021/05/01 00:18:51;;;;;;;5.30;3.70;;;12.20;58.20;;;;;;4751670;30;20044;-90
2021/05/01 00:21:17;;;;;;;5.50;3.95;;;12.20;58.20;;;;;;4760355;30;20110;-90
2021/05/01 00:23:43;;;;;;;4.90;3.65;;;12.20;58.20;;;;;;4721451;30;20187;-91
2021/05/01 00:26:11;;;;;;;5.20;3.80;;;12.10;58.20;;;;;;4744634;30;20043;-90
2021/05/01 00:28:38;;;;;;;5.30;3.88;;;12.10;58.20;;;;;;4742026;30;20047;-90
2021/05/01 00:31:04;;;;;;;4.88;4.00;;;12.10;58.20;;;;;;4721242;30;20062;-91
2021/05/01 00:33:30;;;;;;;5.85;4.53;;;12.10;58.30;;;;;;4749931;30;20486;-90
2021/05/01 00:35:56;;;;;;;6.88;4.40;;;12.10;58.90;;;;;;4738149;30;20035;-90
2021/05/01 00:38:22;;;;;;;6.20;4.32;;;12.10;58.30;;;;;;4749908;30;20094;-90
2021/05/01 00:40:49;;;;;;;6.22;4.53;;;12.10;58.30;;;;;;4714321;30;20069;-91
2021/05/01 00:43:15;;;;;;;5.70;4.68;;;12.10;58.40;;;;;;4724210;30;20049;-90
2021/05/01 00:45:40;;;;;;;6.03;4.82;;;12.00;58.30;;;;;;4749654;30;20112;-91
2021/05/01 00:48:06;;;;;;;6.55;4.93;;;12.00;58.30;;;;;;4744077;30;20063;-91
2021/05/01 00:50:33;;;;;;;6.63;4.65;;;12.00;58.30;;;;;;4733453;30;20530;-90
2021/05/01 00:52:59;;;;;;;6.40;4.80;;;12.00;58.30;;;;;;4722287;30;20075;-92
2021/05/01 00:55:25;;;;;;;6.30;4.90;;;12.00;58.30;;;;;;4735249;30;20036;-90
2021/05/01 00:57:50;;;;;;;7.07;5.05;;;12.00;58.40;;;;;;4706367;30;20041;-91
2021/05/01 01:00:33;;;;;;;6.38;5.05;;;12.00;58.40;;;;;;4735992;30;20159;-89
2021/05/01 01:02:59;;;;;;;6.18;5.00;;;12.00;58.40;;;;;;4725111;30;20044;-90
2021/05/01 01:05:25;;;;;;;5.95;4.60;;;11.90;58.30;;;;;;4720750;30;20029;-90
2021/05/01 01:07:51;;;;;;;5.75;4.85;;;11.90;58.40;;;;;;4735716;30;20037;-90
2021/05/01 01:10:17;;;;;;;7.03;5.28;;;11.90;58.40;;;;;;4750017;30;20045;-90
2021/05/01 01:12:43;;;;;;;6.38;4.93;;;11.90;58.40;;;;;;4725271;30;20036;-89
2021/05/01 01:15:10;;;;;;;6.22;5.20;;;11.90;58.40;;;;;;4741326;30;20037;-90
2021/05/01 01:17:36;;;;;;;6.78;5.63;;;11.90;58.40;;;;;;4721228;30;20125;-89
2021/05/01 01:20:03;;;;;;;7.18;5.50;;;11.90;58.50;;;;;;4737460;30;20037;-91
2021/05/01 01:22:29;;;;;;;6.65;5.43;;;11.90;58.50;;;;;;4721856;30;20043;-91
2021/05/01 01:24:55;;;;;;;9.60;6.18;;;11.80;58.40;;;;;;4749584;30;20028;-91
2021/05/01 01:27:21;;;;;;;7.53;5.45;;;11.80;58.40;;;;;;4728728;30;20099;-90
2021/05/01 01:29:48;;;;;;;6.47;5.10;;;11.80;58.50;;;;;;4745596;30;20045;-91
2021/05/01 01:32:14;;;;;;;6.95;5.68;;;11.80;58.50;;;;;;4719830;30;20111;-90
2021/05/01 01:34:44;;;;;;;7.00;5.40;;;11.80;58.50;;;;;;4734726;30;20112;-89
2021/05/01 01:37:11;;;;;;;7.07;5.43;;;11.80;58.50;;;;;;4729294;30;20024;-90
2021/05/01 01:39:37;;;;;;;8.07;5.53;;;11.80;58.50;;;;;;4741345;30;20032;-89
2021/05/01 01:42:04;;;;;;;6.82;5.35;;;11.80;58.50;;;;;;4750081;30;20048;-92
2021/05/01 01:44:30;;;;;;;6.55;5.13;;;11.80;58.50;;;;;;4751797;30;20486;-90
2021/05/01 01:46:56;;;;;;;6.38;5.25;;;11.70;58.50;;;;;;4731855;30;20039;-90
2021/05/01 01:49:22;;;;;;;7.10;5.43;;;11.70;59.10;;;;;;4734982;30;20075;-89
2021/05/01 01:51:47;;;;;;;7.05;5.40;;;11.70;58.50;;;;;;4734140;30;20033;-91
2021/05/01 01:54:13;;;;;;;6.85;5.28;;;11.70;58.60;;;;;;4705770;30;20036;-90
2021/05/01 01:56:40;;;;;;;6.75;5.55;;;11.70;58.60;;;;;;4724543;30;20068;-91
2021/05/01 01:59:06;;;;;;;7.18;5.20;;;11.70;58.60;;;;;;4753734;30;20079;-91
2021/05/01 02:01:33;;;;;;;6.75;5.35;;;11.70;58.60;;;;;;4749023;30;20036;-91
2021/05/01 02:04:00;;;;;;;6.38;5.05;;;11.70;58.60;;;;;;4733954;30;20203;-89
2021/05/01 02:06:25;;;;;;;5.70;4.25;;;11.60;58.60;;;;;;4727803;30;20040;-91
2021/05/01 02:08:52;;;;;;;6.35;5.10;;;11.60;58.60;;;;;;4757257;30;20035;-90
2021/05/01 02:11:18;;;;;;;6.07;5.00;;;11.60;58.60;;;;;;4718640;30;20048;-92
2021/05/01 02:13:44;;;;;;;5.95;5.10;;;11.60;58.60;;;;;;4731253;30;20124;-89
2021/05/01 02:16:10;;;;;;;6.57;4.88;;;11.60;58.60;;;;;;4760041;30;20028;-90
2021/05/01 02:18:36;;;;;;;6.18;4.35;;;11.60;58.70;;;;;;4733830;30;20048;-92
2021/05/01 02:21:03;;;;;;;6.00;4.65;;;11.50;58.60;;;;;;4727426;30;20044;-93
2021/05/01 02:23:28;;;;;;;5.75;4.30;;;11.50;58.70;;;;;;4761255;30;20502;-92
2021/05/01 02:25:54;;;;;;;6.07;4.10;;;11.50;58.60;;;;;;4710443;30;20028;-92
2021/05/01 02:28:20;;;;;;;5.63;4.22;;;11.50;58.60;;;;;;4738952;30;20517;-91
2021/05/01 02:30:46;;;;;;;5.95;4.32;;;11.50;58.70;;;;;;4710647;30;20044;-90
2021/05/01 02:33:12;;;;;;;5.88;4.72;;;11.40;58.60;;;;;;4743562;30;20036;-91
2021/05/01 02:35:39;;;;;;;5.28;4.20;;;11.50;58.70;;;;;;4749453;30;20037;-92
2021/05/01 02:38:06;;;;;;;5.65;3.88;;;11.40;58.70;;;;;;4749224;30;20036;-91
2021/05/01 02:40:32;;;;;;;6.47;4.22;;;11.40;58.70;;;;;;4726764;30;20075;-92
2021/05/01 02:43:06;;;;;;;5.63;4.07;;;11.40;58.70;;;;;;4725945;30;20494;-92
2021/05/01 02:45:33;;;;;;;5.07;3.97;;;11.40;58.80;;;;;;4740631;30;20037;-91
2021/05/01 02:47:59;;;;;;;5.22;3.95;;;11.40;58.70;;;;;;4720452;30;20460;-92
2021/05/01 02:50:25;;;;;;;4.63;3.72;;;11.40;58.70;;;;;;4749261;30;20086;-92
2021/05/01 02:52:50;;;;;;;5.63;4.22;;;11.30;58.70;;;;;;4719367;30;20112;-91
2021/05/01 02:55:16;;;;;;;5.38;3.78;;;11.30;58.70;;;;;;4734043;30;20391;-92
2021/05/01 02:57:43;;;;;;;6.15;3.95;;;11.30;58.70;;;;;;4704802;30;20036;-90
2021/05/01 03:00:15;;;;;;;4.93;3.70;;;11.30;58.80;;;;;;4728046;30;20140;-93
2021/05/01 03:02:43;;;;;;;5.80;3.97;;;11.30;58.80;;;;;;4748456;30;20125;-91
2021/05/01 03:05:11;;;;;;;7.15;4.40;;;11.30;58.80;;;;;;4720844;30;20034;-91
2021/05/01 03:07:37;;;;;;;4.95;3.30;;;11.20;58.70;;;;;;4754858;30;20175;-92
2021/05/01 03:10:08;;;;;;;5.57;4.20;;;11.20;58.70;;;;;;4722020;30;20112;-91
2021/05/01 03:12:33;;;;;;;4.85;3.45;;;11.20;58.80;;;;;;4740275;30;20499;-91
2021/05/01 03:14:59;;;;;;;5.15;3.78;;;11.20;58.70;;;;;;4722212;30;20126;-91
2021/05/01 03:17:25;;;;;;;5.50;3.50;;;11.20;58.80;;;;;;4766491;30;20036;-91
2021/05/01 03:19:51;;;;;;;4.60;3.80;;;11.20;58.80;;;;;;4727051;30;20039;-90
2021/05/01 03:22:17;;;;;;;4.68;3.53;;;11.10;58.80;;;;;;4746627;30;20052;-92
2021/05/01 03:24:43;;;;;;;4.70;3.70;;;11.10;58.80;;;;;;4734214;30;20068;-92
2021/05/01 03:27:09;;;;;;;4.68;3.65;;;11.10;58.80;;;;;;4709528;30;20715;-91
2021/05/01 03:29:35;;;;;;;5.45;3.80;;;11.10;58.80;;;;;;4737624;30;20119;-91
2021/05/01 03:32:01;;;;;;;5.45;3.72;;;11.10;58.80;;;;;;4733636;30;20024;-91
2021/05/01 03:34:27;;;;;;;5.82;3.80;;;11.00;58.80;;;;;;4737049;30;20045;-91
2021/05/01 03:36:53;;;;;;;5.07;3.92;;;11.00;58.80;;;;;;4736448;30;20549;-92
2021/05/01 03:39:18;;;;;;;4.93;3.80;;;11.00;58.80;;;;;;4732084;30;20115;-91
2021/05/01 03:41:44;;;;;;;5.72;4.18;;;11.00;58.80;;;;;;4730761;30;20402;-92
2021/05/01 03:44:11;;;;;;;5.78;4.13;;;10.90;58.80;;;;;;4752078;30;20040;-91
2021/05/01 03:46:37;;;;;;;4.90;4.10;;;10.90;58.80;;;;;;4722747;30;20131;-91
2021/05/01 03:49:03;;;;;;;5.63;4.15;;;10.90;58.80;;;;;;4734490;30;20036;-92
2021/05/01 03:51:29;;;;;;;5.35;3.85;;;10.90;58.80;;;;;;4732710;30;20290;-92
2021/05/01 03:53:55;;;;;;;5.85;4.35;;;10.90;58.90;;;;;;4749971;30;20570;-90
2021/05/01 03:56:21;;;;;;;5.85;4.53;;;10.90;58.90;;;;;;4742636;30;20060;-93
2021/05/01 03:58:47;;;;;;;5.20;3.92;;;10.80;58.80;;;;;;4722355;30;20134;-91
2021/05/01 04:01:12;;;;;;;5.15;4.00;;;10.80;58.90;;;;;;4751013;30;20040;-91
2021/05/01 04:03:38;;;;;;;5.20;3.95;;;10.80;58.80;;;;;;4751506;30;20036;-91
2021/05/01 04:06:05;;;;;;;5.38;4.13;;;10.80;58.90;;;;;;4726162;30;20024;-92
2021/05/01 04:08:32;;;;;;;5.38;4.28;;;10.80;58.90;;;;;;4744982;30;20037;-91
2021/05/01 04:10:58;;;;;;;5.35;3.97;;;10.80;58.90;;;;;;4736020;30;20508;-92
2021/05/01 04:13:23;;;;;;;5.55;4.07;;;10.70;58.90;;;;;;4709578;30;20032;-92
2021/05/01 04:15:49;;;;;;;4.90;4.20;;;10.70;58.90;;;;;;4709262;30;20039;-90
2021/05/01 04:18:15;;;;;;;5.88;4.47;;;10.70;58.90;;;;;;4722290;30;20047;-91
2021/05/01 04:20:42;;;;;;;5.03;3.80;;;10.60;58.90;;;;;;4736066;30;20040;-92
2021/05/01 04:23:10;;;;;;;6.40;4.47;;;10.60;58.90;;;;;;4734335;30;20040;-93
2021/05/01 04:25:37;;;;;;;5.57;4.20;;;10.60;58.90;;;;;;4729534;30;20036;-92
2021/05/01 04:28:04;;;;;;;5.45;3.97;;;10.60;58.90;;;;;;4765894;30;20033;-92
2021/05/01 04:30:31;;;;;;;5.35;4.10;;;10.50;58.90;;;;;;4722490;30;20068;-93
2021/05/01 04:32:57;;;;;;;4.97;4.07;;;10.60;59.00;;;;;;4720562;30;20036;-92
2021/05/01 04:35:23;;;;;;;5.65;4.25;;;10.50;58.90;;;;;;4738168;30;20036;-91
2021/05/01 04:37:49;;;;;;;4.95;4.07;;;10.50;58.90;;;;;;4725722;30;20036;-92
2021/05/01 04:40:15;;;;;;;5.60;3.92;;;10.50;58.90;;;;;;4755642;30;20036;-90
2021/05/01 04:42:52;;;;;;;5.28;4.00;;;10.50;59.00;;;;;;4749315;30;20070;-92
2021/05/01 04:45:19;;;;;;;5.22;4.03;;;10.40;59.00;;;;;;4744145;30;20040;-90
2021/05/01 04:47:45;;;;;;;5.65;4.40;;;10.40;58.90;;;;;;4745289;30;20032;-90
2021/05/01 04:50:12;;;;;;;5.10;3.85;;;10.40;58.90;;;;;;4740442;30;20056;-90
2021/05/01 04:52:38;;;;;;;5.35;3.92;;;10.40;59.00;;;;;;4723573;30;20043;-90
2021/05/01 04:55:13;;;;;;;6.15;4.43;;;10.40;59.00;;;;;;4735630;30;20033;-91
2021/05/01 04:57:46;;;;;;;5.60;4.15;;;10.30;59.00;;;;;;4742214;30;20039;-91
2021/05/01 05:00:14;;;;;;;5.18;4.13;;;10.30;59.00;;;;;;4750863;30;20044;-91
2021/05/01 05:02:40;;;;;;;5.25;3.92;;;10.30;59.00;;;;;;4742155;30;20028;-90
2021/05/01 05:05:08;;;;;;;6.45;4.25;;;10.30;59.00;;;;;;4753321;30;20515;-91
2021/05/01 05:07:33;;;;;;;5.32;4.47;;;10.30;59.10;;;;;;4723681;30;20041;-90
2021/05/01 05:09:59;;;;;;;5.35;4.20;;;10.30;59.00;;;;;;4732031;30;20087;-90
2021/05/01 05:12:25;;;;;;;6.10;4.60;;;10.20;59.00;;;;;;4735209;30;20051;-91
2021/05/01 05:14:51;;;;;;;6.13;4.72;;;10.30;59.10;;;;;;4745770;30;20029;-91
2021/05/01 05:17:17;;;;;;;5.93;4.78;;;10.20;59.10;;;;;;4721643;30;20044;-91
2021/05/01 05:19:43;;;;;;;5.00;4.15;;;10.20;59.10;;;;;;4732741;30;20043;-91
2021/05/01 05:22:09;;;;;;;6.53;4.90;;;10.20;59.10;;;;;;4720240;30;20032;-90
2021/05/01 05:24:36;;;;;;;7.28;4.90;;;10.20;59.10;;;;;;4719878;30;20044;-90
2021/05/01 05:27:03;;;;;;;5.78;4.22;;;10.10;59.10;;;;;;4742281;30;20119;-91
2021/05/01 05:29:29;;;;;;;6.65;4.88;;;10.20;59.20;;;;;;4735131;30;20100;-91
2021/05/01 05:31:55;;;;;;;6.07;4.80;;;10.10;59.10;;;;;;4737349;30;20036;-90
2021/05/01 05:34:22;;;;;;;5.47;4.50;;;10.10;59.10;;;;;;4732232;30;20040;-91
2021/05/01 05:36:48;;;;;;;5.97;4.45;;;10.10;59.10;;;;;;4733887;30;20514;-91
2021/05/01 05:39:14;;;;;;;6.15;4.93;;;10.10;59.20;;;;;;4719927;30;20032;-90
2021/05/01 05:41:41;;;;;;;6.40;5.00;;;10.10;59.20;;;;;;4733519;30;20065;-88
2021/05/01 05:44:07;;;;;;;6.10;5.18;;;10.10;59.20;;;;;;4734613;30;20091;-94
2021/05/01 05:46:33;;;;;;;6.75;5.50;;;10.10;59.20;;;;;;4734722;30;20051;-92
2021/05/01 05:48:59;;;;;;;6.50;5.03;;;10.10;59.20;;;;;;4745632;30;20119;-94
2021/05/01 05:51:25;;;;;;;6.05;4.78;;;10.10;59.30;;;;;;4741782;30;20418;-94
2021/05/01 05:53:51;;;;;;;6.90;5.10;;;10.10;59.30;;;;;;4734574;30;20082;-94
2021/05/01 05:56:17;;;;;;;6.72;4.97;;;10.10;59.30;;;;;;4734354;30;20032;-93
2021/05/01 05:58:43;;;;;;;6.90;5.57;;;10.10;59.30;;;;;;4749653;30;20041;-95
2021/05/01 06:01:10;;;;;;;6.55;5.55;;;10.10;59.30;;;;;;4719715;30;20063;-95
2021/05/01 06:03:38;;;;;;;6.57;4.90;;;10.10;59.30;;;;;;4759782;30;20044;-95
2021/05/01 06:06:13;;;;;;;6.10;5.05;;;10.10;59.30;;;;;;4720935;30;20383;-94
2021/05/01 06:08:39;;;;;;;6.65;5.60;;;10.10;59.40;;;;;;4731998;30;20032;-92
2021/05/01 06:11:05;;;;;;;5.95;4.88;;;10.00;59.30;;;;;;4742164;30;20036;-92
2021/05/01 06:13:33;;;;;;;6.93;5.57;;;10.10;59.40;;;;;;4743881;30;20139;-93
2021/05/01 06:16:01;;;;;;;7.32;5.50;;;10.00;59.40;;;;;;4752214;30;20049;-93
2021/05/01 06:18:36;;;;;;;6.95;5.22;;;10.00;59.40;;;;;;4753193;30;20028;-93
2021/05/01 06:21:02;;;;;;;7.00;5.18;;;10.00;59.50;;;;;;4764214;30;20036;-92
2021/05/01 06:23:28;;;;;;;6.03;4.97;;;10.00;59.40;;;;;;4720779;30;20064;-93
2021/05/01 06:25:55;;;;;;;7.13;5.60;;;10.00;59.40;;;;;;4719626;30;20131;-93
2021/05/01 06:28:21;;;;;;;7.78;5.50;;;10.00;59.40;;;;;;4721242;30;20032;-91
2021/05/01 06:30:47;;;;;;;7.25;5.72;;;10.00;59.50;;;;;;4752628;30;20406;-93
2021/05/01 06:33:14;;;;;;;6.35;5.25;;;10.00;59.50;;;;;;4720443;30;20041;-93
2021/05/01 06:35:44;;;;;;;7.53;5.47;;;10.00;59.50;;;;;;4731289;30;20044;-94
2021/05/01 06:38:10;;;;;;;7.28;5.70;;;10.10;59.60;;;;;;4761994;30;20040;-91
2021/05/01 06:40:43;;;;;;;7.20;5.50;;;10.00;59.50;;;;;;4723397;30;20040;-91
2021/05/01 06:43:58;;;;;;;6.97;5.30;;;10.10;59.60;;;;;;4751231;30;20048;-90
2021/05/01 06:46:27;;;;;;;7.30;5.05;;;10.00;59.70;;;;;;4754524;30;20171;-91
2021/05/01 06:48:54;;;;;;;6.88;5.65;;;10.10;59.50;;;;;;4740318;30;20024;-90
2021/05/01 06:51:20;;;;;;;7.53;5.85;;;10.10;59.60;;;;;;4754200;30;20048;-92
2021/05/01 06:53:47;;;;;;;6.60;5.05;;;10.10;59.70;;;;;;4725039;30;20044;-90
2021/05/01 06:56:14;;;;;;;6.82;5.25;;;10.10;59.70;;;;;;4739842;30;20025;-91
2021/05/01 06:58:41;;;;;;;6.53;5.25;;;10.10;59.70;;;;;;4739109;30;20033;-91
2021/05/01 07:01:12;;;;;;;7.07;5.57;;;10.10;59.70;;;;;;4722745;30;20139;-91
2021/05/01 07:03:44;;;;;;;7.43;5.85;;;10.10;59.80;;;;;;4737149;30;20133;-90
2021/05/01 07:06:14;;;;;;;7.65;5.88;;;10.10;59.80;;;;;;4721881;30;20029;-91
2021/05/01 07:08:40;;;;;;;6.43;5.15;;;10.10;59.80;;;;;;4752588;30;20041;-93
2021/05/01 07:11:08;;;;;;;6.95;5.93;;;10.10;59.70;;;;;;4738267;30;20072;-86
2021/05/01 07:13:34;;;;;;;6.75;5.20;;;10.10;59.80;;;;;;4755206;30;20039;-91
2021/05/01 07:16:04;;;;;;;7.03;5.60;;;10.10;59.70;;;;;;4742861;30;20032;-89
2021/05/01 07:18:33;;;;;;;7.18;5.50;;;10.10;59.70;;;;;;4728068;30;20491;-91
2021/05/01 07:21:01;;;;;;;6.15;4.88;;;10.20;59.80;;;;;;4722475;30;20091;-91
2021/05/01 07:23:27;;;;;;;7.10;5.13;;;10.20;59.80;;;;;;4736784;30;20047;-89
2021/05/01 07:25:53;;;;;;;6.95;5.43;;;10.20;59.80;;;;;;4723729;30;20037;-89
2021/05/01 07:28:26;;;;;;;6.28;5.15;;;10.20;59.80;;;;;;4737113;30;20040;-89
2021/05/01 07:30:56;;;;;;;6.45;4.80;;;10.20;59.90;;;;;;4745441;30;20080;-90
2021/05/01 07:33:31;;;;;;;6.60;4.97;;;10.20;59.90;;;;;;4733084;30;20041;-91
2021/05/01 07:36:10;;;;;;;6.72;4.80;;;10.20;59.90;;;;;;4746501;30;20035;-93
2021/05/01 07:38:37;;;;;;;6.20;4.50;;;10.20;59.90;;;;;;4727769;30;20087;-90
2021/05/01 07:41:04;;;;;;;6.03;4.55;;;10.30;59.80;;;;;;4744130;30;20049;-89
2021/05/01 07:43:31;;;;;;;5.95;5.13;;;10.30;59.80;;;;;;4719631;30;20160;-90
2021/05/01 07:46:05;;;;;;;6.60;4.75;;;10.30;59.80;;;;;;4735715;30;20548;-90
2021/05/01 07:48:33;;;;;;;5.90;4.53;;;10.30;59.80;;;;;;4729566;30;20045;-88
2021/05/01 07:50:58;;;;;;;6.30;4.95;;;10.40;59.80;;;;;;4720807;30;20029;-88
2021/05/01 07:53:25;;;;;;;6.60;4.80;;;10.40;59.80;;;;;;4750531;30;20037;-90
2021/05/01 07:55:51;;;;;;;5.07;4.07;;;10.40;59.80;;;;;;4736706;30;20036;-90
2021/05/01 07:58:17;;;;;;;6.75;4.70;;;10.50;59.80;;;;;;4722699;30;20028;-90
2021/05/01 08:00:43;;;;;;;5.53;4.25;;;10.50;59.80;;;;;;4736526;30;20453;-89
2021/05/01 08:03:09;;;;;;;6.15;4.53;;;10.50;59.80;;;;;;4716028;30;20037;-89
2021/05/01 08:05:35;;;;;;;6.93;4.70;;;10.60;59.80;;;;;;4751494;30;20364;-89
2021/05/01 08:08:01;;;;;;;5.97;4.43;;;10.60;59.80;;;;;;4723138;30;20498;-85
2021/05/01 08:10:27;;;;;;;5.13;4.00;;;10.60;59.80;;;;;;4738542;30;20047;-93
2021/05/01 08:12:54;;;;;;;5.28;3.97;;;10.70;59.80;;;;;;4751469;30;20029;-92
2021/05/01 08:15:20;;;;;;;5.13;3.90;;;10.70;59.70;;;;;;4757473;30;20028;-91
2021/05/01 08:17:46;;;;;;;6.20;4.53;;;10.70;59.70;;;;;;4742373;30;20498;-91
2021/05/01 08:20:13;;;;;;;5.28;3.67;;;10.80;59.70;;;;;;4739787;30;20392;-85
2021/05/01 08:22:39;;;;;;;5.38;3.67;;;10.80;59.80;;;;;;4722972;30;20072;-86
2021/05/01 08:25:07;;;;;;;6.28;4.28;;;10.80;59.60;;;;;;4753097;30;20028;-87
2021/05/01 08:27:33;;;;;;;4.93;3.58;;;10.90;59.70;;;;;;4735361;30;20086;-92
2021/05/01 08:30:00;;;;;;;5.03;3.65;;;10.90;59.60;;;;;;4760896;30;20102;-84
2021/05/01 08:32:25;;;;;;;4.93;3.58;;;11.00;59.70;;;;;;4721280;30;20487;-85
2021/05/01 08:34:51;;;;;;;5.60;3.72;;;11.00;59.80;;;;;;4735436;30;20041;-84
2021/05/01 08:37:17;;;;;;;6.60;4.10;;;11.00;59.70;;;;;;4740262;30;20029;-84
2021/05/01 08:39:43;;;;;;;5.22;3.38;;;11.10;59.80;;;;;;4734875;30;20048;-92
2021/05/01 08:42:09;;;;;;;6.20;3.88;;;11.20;59.80;;;;;;4746704;30;20052;-91
2021/05/01 08:44:35;;;;;;;4.80;3.33;;;11.20;59.70;;;;;;4754078;30;20040;-95
2021/05/01 08:47:01;;;;;;;4.60;3.42;;;11.30;59.70;;;;;;4735759;30;20049;-90
2021/05/01 08:49:27;;;;;;;4.40;3.28;;;11.40;59.70;;;;;;4728168;30;20039;-93
2021/05/01 08:51:53;;;;;;;4.45;3.28;;;11.40;59.60;;;;;;4751831;30;20035;-90
2021/05/01 08:54:19;;;;;;;5.28;3.30;;;11.50;59.50;;;;;;4732667;30;20029;-90
2021/05/01 08:56:45;;;;;;;4.00;3.10;;;11.60;59.40;;;;;;4720350;30;20040;-90
2021/05/01 08:59:11;;;;;;;3.97;3.17;;;11.60;59.30;;;;;;4734077;30;20020;-89
2021/05/01 09:01:38;;;;;;;4.60;3.28;;;11.70;59.30;;;;;;4734137;30;20033;-89
2021/05/01 09:04:09;;;;;;;3.95;3.20;;;11.80;59.20;;;;;;4740405;30;20032;-88
2021/05/01 09:06:35;;;;;;;4.63;3.08;;;11.80;59.10;;;;;;4748850;30;20024;-89
2021/05/01 09:09:07;;;;;;;5.07;3.10;;;11.90;59.00;;;;;;4735108;30;20104;-90
2021/05/01 09:11:37;;;;;;;4.35;2.97;;;11.90;59.60;;;;;;4719558;30;20049;-91
2021/05/01 09:14:26;;;;;;;4.93;3.28;;;12.00;58.80;;;;;;4752387;30;20063;-86
2021/05/01 09:17:00;;;;;;;5.15;3.30;;;12.10;59.50;;;;;;4741083;30;20029;-88
2021/05/01 09:19:36;;;;;;;3.50;2.80;;;12.20;58.70;;;;;;4746754;30;20033;-84
2021/05/01 09:22:03;;;;;;;4.05;2.65;;;12.20;58.60;;;;;;4752327;30;20032;-82
2021/05/01 09:24:29;;;;;;;3.40;2.67;;;12.30;58.50;;;;;;4745543;30;20749;-84
2021/05/01 09:26:55;;;;;;;4.13;2.75;;;12.30;58.40;;;;;;4729551;30;20043;-82
2021/05/01 09:29:47;;;;;;;3.63;2.53;;;12.40;58.40;;;;;;4729653;30;20123;-80
2021/05/01 09:32:24;;;;;;;6.53;2.90;;;12.50;58.60;;;;;;4721664;30;20392;-85
2021/05/01 09:34:52;;;;;;;3.63;2.67;;;12.60;58.40;;;;;;4745540;30;20044;-84
2021/05/01 09:37:21;;;;;;;4.05;2.67;;;12.70;58.30;;;;;;4744980;30;20047;-83
2021/05/01 09:39:50;;;;;;;4.13;3.05;;;12.80;58.20;;;;;;4745655;30;20029;-87
2021/05/01 09:42:18;;;;;;;3.67;2.60;;;12.90;58.20;;;;;;4729566;30;20140;-86
2021/05/01 09:44:45;;;;;;;3.17;2.45;;;13.00;58.20;;;;;;4713456;30;20045;-84
2021/05/01 09:47:18;;;;;;;4.50;2.78;;;13.10;58.10;;;;;;4722364;30;20044;-85
2021/05/01 09:49:46;;;;;;;4.70;2.78;;;13.20;58.10;;;;;;4731211;30;20048;-84
2021/05/01 09:52:17;;;;;;;3.55;2.42;;;13.20;57.90;;;;;;4729868;30;20119;-82
2021/05/01 09:54:45;;;;;;;4.13;2.75;;;13.30;57.90;;;;;;4715996;30;20048;-83
2021/05/01 09:57:18;;;;;;;3.25;2.63;;;13.40;57.90;;;;;;4719182;30;20031;-83
2021/05/01 09:59:53;;;;;;;4.30;2.75;;;13.50;57.80;;;;;;4721608;30;20101;-86
2021/05/01 10:02:20;;;;;;;4.30;2.50;;;13.60;57.80;;;;;;4756688;30;20075;-82
2021/05/01 10:05:18;;;;;;;3.63;2.40;;;13.60;57.70;;;;;;4751476;30;20037;-83
2021/05/01 10:07:51;;;;;;;3.10;2.20;;;13.80;57.80;;;;;;4745678;30;20061;-82
2021/05/01 10:10:17;;;;;;;3.10;2.40;;;13.80;57.50;;;;;;4733994;30;20055;-83
2021/05/01 10:12:45;;;;;;;4.15;2.60;;;13.90;57.40;;;;;;4733276;30;20032;-82
2021/05/01 10:15:26;;;;;;;3.10;2.25;;;14.00;57.40;;;;;;4732587;30;20511;-83
2021/05/01 10:17:52;;;;;;;3.78;2.13;;;14.10;57.40;;;;;;4747898;30;20478;-82
2021/05/01 10:20:19;;;;;;;2.97;2.00;;;14.20;57.30;;;;;;4711869;30;20045;-83
2021/05/01 10:22:46;;;;;;;3.55;2.67;;;14.30;57.20;;;;;;4736678;30;20128;-86
2021/05/01 10:25:18;;;;;;;3.20;2.17;;;14.40;57.10;;;;;;4734760;30;20028;-85
2021/05/01 10:27:57;;;;;;;3.08;2.22;;;14.50;57.00;;;;;;4746815;30;20033;-85
2021/05/01 10:30:39;;;;;;;3.80;2.30;;;14.60;56.90;;;;;;4733701;30;20584;-86
2021/05/01 10:33:19;;;;;;;2.70;2.10;;;14.70;56.80;;;;;;4748571;30;20040;-86
2021/05/01 10:36:00;;;;;;;3.05;2.05;;;14.70;56.60;;;;;;4754816;30;20033;-86
2021/05/01 10:38:26;;;;;;;2.88;2.15;;;14.80;56.60;;;;;;4746750;30;20086;-86
2021/05/01 10:41:00;;;;;;;3.05;2.40;;;14.90;56.50;;;;;;4735180;30;20040;-86
2021/05/01 10:43:29;;;;;;;3.05;2.05;;;14.90;57.20;;;;;;4741218;30;20049;-86
2021/05/01 10:46:11;;;;;;;2.90;2.10;;;14.90;56.40;;;;;;4748567;30;20033;-86
2021/05/01 10:48:52;;;;;;;3.20;2.10;;;15.00;56.50;;;;;;4737684;30;20037;-86
2021/05/01 10:51:23;;;;;;;2.92;2.25;;;15.00;56.40;;;;;;4729259;30;20041;-88
2021/05/01 10:54:16;;;;;;;2.85;2.33;;;15.00;56.30;;;;;;4749567;30;20052;-86
2021/05/01 10:56:47;;;;;;;2.10;1.90;;;15.10;56.30;;;;;;4725032;30;20045;-86
2021/05/01 10:59:18;;;;;;;2.42;1.88;;;15.10;56.20;;;;;;4745916;30;20032;-87
2021/05/01 11:01:49;;;;;;;2.70;2.00;;;15.10;56.20;;;;;;4748178;30;20071;-90
2021/05/01 11:04:24;;;;;;;2.92;2.00;;;15.20;56.20;;;;;;4729646;30;20049;-88
2021/05/01 11:06:58;;;;;;;2.80;2.00;;;15.20;56.20;;;;;;4748127;30;20036;-87
2021/05/01 11:09:45;;;;;;;2.53;2.13;;;15.20;56.10;;;;;;4748117;30;20032;-87
2021/05/01 11:12:14;;;;;;;3.35;2.05;;;15.20;56.10;;;;;;4737898;30;20490;-88
2021/05/01 11:14:51;;;;;;;3.10;1.95;;;15.20;56.00;;;;;;4732428;30;20111;-88
2021/05/01 11:17:35;;;;;;;2.50;1.98;;;15.20;56.00;;;;;;4747407;30;20121;-89
2021/05/01 11:20:05;;;;;;;2.78;2.08;;;15.20;56.00;;;;;;4739810;30;20039;-86
2021/05/01 11:22:34;;;;;;;2.58;2.17;;;15.30;55.90;;;;;;4728388;30;20036;-89
2021/05/01 11:25:06;;;;;;;3.17;1.90;;;15.30;55.90;;;;;;4750639;30;20035;-87
2021/05/01 11:27:32;;;;;;;2.75;1.83;;;15.30;55.90;;;;;;4732304;30;20037;-90
2021/05/01 11:29:58;;;;;;;2.50;1.80;;;15.30;55.80;;;;;;4736318;30;20106;-93
2021/05/01 11:32:25;;;;;;;3.00;1.80;;;15.40;56.50;;;;;;4705048;30;20036;-91
2021/05/01 11:35:13;;;;;;;3.28;2.00;;;15.40;55.80;;;;;;4736485;30;20032;-91
2021/05/01 11:37:42;;;;;;;3.15;2.20;;;15.40;55.90;;;;;;4746482;30;20047;-88
2021/05/01 11:40:11;;;;;;;2.58;1.92;;;15.50;55.70;;;;;;4749737;30;20051;-92
2021/05/01 11:42:39;;;;;;;3.72;2.28;;;15.50;55.60;;;;;;4724164;30;20088;-85
2021/05/01 11:45:40;;;;;;;2.38;1.83;;;15.50;55.60;;;;;;4748171;30;20056;-91
2021/05/01 11:48:10;;;;;;;3.53;2.22;;;15.60;55.70;;;;;;4733871;30;20045;-84
2021/05/01 11:50:38;;;;;;;2.65;1.95;;;15.60;55.50;;;;;;4748012;30;20472;-87
2021/05/01 11:53:22;;;;;;;2.33;1.80;;;15.70;55.50;;;;;;4720678;30;20033;-86
2021/05/01 11:56:04;;;;;;;2.40;2.10;;;15.70;55.50;;;;;;4734858;30;20041;-87
2021/05/01 11:58:34;;;;;;;3.08;2.10;;;15.80;55.50;;;;;;4750467;30;20033;-88
2021/05/01 12:01:33;;;;;;;2.95;2.00;;;15.80;55.40;;;;;;4721340;30;20046;-86
2021/05/01 12:04:04;;;;;;;2.40;1.88;;;15.80;55.50;;;;;;4735123;30;20053;-87
2021/05/01 12:06:40;;;;;;;2.72;2.00;;;15.80;55.30;;;;;;4736146;30;20112;-86
2021/05/01 12:09:18;;;;;;;2.67;1.70;;;15.90;55.30;;;;;;4751953;30;20032;-86
2021/05/01 12:11:46;;;;;;;3.03;2.08;;;15.90;55.30;;;;;;4735324;30;20051;-87
2021/05/01 12:14:13;;;;;;;3.08;2.00;;;15.90;55.20;;;;;;4735827;30;20043;-87
2021/05/01 12:16:39;;;;;;;2.47;1.67;;;16.00;55.20;;;;;;4720313;30;20580;-88
2021/05/01 12:19:06;;;;;;;3.15;2.15;;;16.00;55.10;;;;;;4720802;30;20029;-90
2021/05/01 12:21:44;;;;;;;2.95;2.08;;;16.00;55.10;;;;;;4723507;30;20047;-88
2021/05/01 12:24:31;;;;;;;2.47;1.85;;;16.00;55.10;;;;;;4734462;30;20060;-86
2021/05/01 12:26:57;;;;;;;2.78;1.65;;;16.00;55.00;;;;;;4739467;30;20036;-87
2021/05/01 12:29:24;;;;;;;2.13;1.75;;;16.10;55.00;;;;;;4742882;30;20036;-87
2021/05/01 12:31:52;;;;;;;2.85;2.05;;;16.10;54.90;;;;;;4750012;30;20044;-87
2021/05/01 12:34:19;;;;;;;2.30;1.60;;;16.10;54.90;;;;;;4721447;30;20032;-84
2021/05/01 12:36:48;;;;;;;2.30;1.75;;;16.10;54.80;;;;;;4738396;30;20494;-87
2021/05/01 12:39:16;;;;;;;2.03;1.73;;;16.20;54.80;;;;;;4735698;30;20084;-88
2021/05/01 12:41:44;;;;;;;2.20;1.73;;;16.20;54.70;;;;;;4750039;30;20394;-88
2021/05/01 12:44:33;;;;;;;1.83;1.58;;;16.20;54.70;;;;;;4720505;30;20049;-87
2021/05/01 12:47:00;;;;;;;2.08;1.73;;;16.20;54.80;;;;;;4738375;30;20033;-88
2021/05/01 12:49:28;;;;;;;2.47;1.60;;;16.30;54.60;;;;;;4752916;30;20393;-88
2021/05/01 12:52:21;;;;;;;2.55;2.00;;;16.30;54.60;;;;;;4749421;30;20077;-87
2021/05/01 12:54:56;;;;;;;1.58;1.48;;;16.30;54.70;;;;;;4749779;30;20032;-87
2021/05/01 12:57:31;;;;;;;2.55;1.77;;;16.40;54.50;;;;;;4732340;30;20044;-87